createdAt,value
2023-01-10T00:02:10.735Z,98.50
2023-01-10T00:04:38.877Z,98.06
2023-01-10T00:07:06.952Z,98.23
2023-01-10T00:09:35.025Z,98.29
2023-01-10T00:12:23.147Z,97.42
2023-01-10T00:14:52.784Z,97.60
2023-01-10T00:17:22.282Z,97.05
2023-01-10T00:19:50.362Z,97.05
2023-01-10T00:22:25.200Z,97.28
2023-01-10T00:24:53.426Z,96.89
2023-01-10T00:27:23.672Z,97.05
2023-01-10T00:29:53.392Z,97.15
2023-01-10T00:32:23.094Z,96.51
2023-01-10T00:34:51.260Z,96.01
2023-01-10T00:37:19.713Z,95.81
2023-01-10T00:39:47.815Z,95.21
2023-01-10T00:42:33.359Z,94.52
2023-01-10T00:45:01.398Z,94.78
2023-01-10T00:47:30.862Z,94.73
2023-01-10T00:49:59.000Z,94.61
2023-01-10T00:52:27.080Z,94.09
2023-01-10T00:54:55.124Z,94.00
2023-01-10T00:57:23.253Z,93.83
2023-01-10T00:59:51.290Z,93.98
2023-01-10T01:02:19.601Z,93.94
2023-01-10T01:04:49.095Z,94.48
2023-01-10T01:07:17.222Z,94.50
2023-01-10T01:09:59.204Z,94.75
2023-01-10T01:12:27.356Z,94.18
2023-01-10T01:14:55.471Z,94.14
2023-01-10T01:17:23.555Z,94.15
2023-01-10T01:19:53.015Z,94.61
2023-01-10T01:22:21.211Z,96.22
2023-01-10T01:24:49.314Z,96.27
2023-01-10T01:27:17.462Z,97.69
2023-01-10T01:29:45.548Z,98.06
2023-01-10T01:32:13.617Z,99.02
2023-01-10T01:34:42.029Z,99.79
2023-01-10T01:37:11.686Z,100.00
2023-01-10T01:39:39.781Z,100.00
2023-01-10T01:42:08.200Z,100.00
2023-01-10T01:44:40.623Z,100.00
2023-01-10T01:47:15.367Z,100.00
2023-01-10T01:49:46.269Z,100.00
2023-01-10T01:52:24.004Z,100.00
2023-01-10T01:54:54.503Z,100.00
2023-01-10T01:57:26.320Z,100.00
2023-01-10T01:59:56.928Z,100.00
2023-01-10T02:02:30.116Z,100.00
2023-01-10T02:05:02.058Z,100.00
2023-01-10T02:07:37.412Z,100.00
2023-01-10T02:10:11.860Z,100.00
2023-01-10T02:12:41.324Z,100.00
2023-01-10T02:15:12.281Z,100.00
2023-01-10T02:17:40.627Z,100.00
2023-01-10T02:20:12.468Z,100.00
2023-01-10T02:23:13.229Z,100.00
2023-01-10T02:26:24.760Z,100.00
2023-01-10T02:29:41.023Z,100.00
2023-01-10T02:32:45.910Z,100.00
2023-01-10T02:35:34.306Z,100.00
2023-01-10T02:38:12.864Z,100.00
2023-01-10T02:40:48.639Z,100.00
2023-01-10T02:43:21.316Z,100.00
2023-01-10T02:45:54.776Z,100.00
2023-01-10T02:48:24.672Z,100.00
2023-01-10T02:50:58.484Z,100.00
2023-01-10T02:53:33.386Z,100.00
2023-01-10T02:56:25.280Z,100.00
2023-01-10T02:59:28.060Z,100.00
2023-01-10T03:02:01.487Z,100.00
2023-01-10T03:04:45.664Z,100.00
2023-01-10T03:07:22.219Z,100.00
2023-01-10T03:09:56.900Z,100.00
2023-01-10T03:12:33.633Z,100.00
2023-01-10T03:15:05.025Z,100.00
2023-01-10T03:17:33.835Z,100.00
2023-01-10T03:20:07.241Z,100.00
2023-01-10T03:22:39.718Z,100.00
2023-01-10T03:25:12.835Z,100.00
2023-01-10T03:27:50.218Z,100.00
2023-01-10T03:30:26.216Z,100.00
2023-01-10T03:32:56.580Z,100.00
2023-01-10T03:35:36.045Z,100.00
2023-01-10T03:38:10.517Z,100.00
2023-01-10T03:40:54.536Z,100.00
2023-01-10T03:43:49.352Z,100.00
2023-01-10T03:46:26.135Z,100.00
2023-01-10T03:48:56.349Z,100.00
2023-01-10T03:51:27.252Z,100.00
2023-01-10T03:53:55.487Z,100.00
2023-01-10T03:56:23.496Z,100.00
2023-01-10T03:58:51.575Z,100.00
2023-01-10T04:01:20.519Z,100.00
2023-01-10T04:03:48.729Z,100.00
2023-01-10T04:06:17.594Z,100.00
2023-01-10T04:08:47.079Z,100.00
2023-01-10T04:11:15.196Z,100.00
2023-01-10T04:13:43.264Z,100.00
2023-01-10T04:16:11.483Z,100.00
2023-01-10T04:18:39.635Z,100.00
2023-01-10T04:21:07.946Z,100.00
2023-01-10T04:23:35.972Z,100.00
2023-01-10T04:26:05.834Z,100.00
2023-01-10T04:28:33.930Z,100.00
2023-01-10T04:31:02.891Z,100.00
2023-01-10T04:33:30.990Z,100.00
2023-01-10T04:35:59.103Z,100.00
2023-01-10T04:38:27.147Z,100.00
2023-01-10T04:40:56.424Z,100.00
2023-01-10T04:43:26.608Z,100.00
2023-01-10T04:45:54.833Z,100.00
2023-01-10T04:48:22.963Z,100.00
2023-01-10T04:50:51.978Z,100.00
2023-01-10T04:53:20.523Z,100.00
2023-01-10T04:55:49.045Z,100.00
2023-01-10T04:58:17.221Z,100.00
2023-01-10T05:00:46.739Z,100.00
2023-01-10T05:03:16.138Z,100.00
2023-01-10T05:05:44.326Z,100.00
2023-01-10T05:08:12.459Z,100.00
2023-01-10T05:10:40.567Z,100.00
2023-01-10T05:13:08.691Z,100.00
2023-01-10T05:15:36.818Z,100.00
2023-01-10T05:18:06.437Z,100.00
2023-01-10T05:20:34.593Z,100.00
2023-01-10T05:23:02.744Z,100.00
2023-01-10T05:25:30.877Z,100.00
2023-01-10T05:27:58.963Z,100.00
2023-01-10T05:30:27.065Z,100.00
2023-01-10T05:32:55.218Z,100.00
2023-01-10T05:35:24.651Z,100.00
2023-01-10T05:37:52.751Z,100.00
2023-01-10T05:40:20.922Z,100.00
2023-01-10T05:42:48.959Z,100.00
2023-01-10T05:45:17.262Z,100.00
2023-01-10T05:47:45.867Z,100.00
2023-01-10T05:50:14.087Z,100.00
2023-01-10T05:52:43.486Z,100.00
2023-01-10T05:55:11.709Z,100.00
2023-01-10T05:57:39.730Z,100.00
2023-01-10T06:00:09.389Z,100.00
2023-01-10T06:02:40.032Z,100.00
2023-01-10T06:05:08.810Z,100.00
2023-01-10T06:07:36.976Z,100.00
2023-01-10T06:10:07.287Z,100.00
2023-01-10T06:12:35.429Z,100.00
2023-01-10T06:15:03.920Z,100.00
2023-01-10T06:17:32.101Z,100.00
2023-01-10T06:20:00.138Z,100.00
2023-01-10T06:22:29.133Z,100.00
2023-01-10T06:24:57.200Z,100.00
2023-01-10T06:27:26.763Z,100.00
2023-01-10T06:29:54.860Z,100.00
2023-01-10T06:32:22.931Z,100.00
2023-01-10T06:34:51.012Z,100.00
2023-01-10T06:37:20.271Z,100.00
2023-01-10T06:39:48.545Z,100.00
2023-01-10T06:42:16.697Z,100.00
2023-01-10T06:44:46.991Z,100.00
2023-01-10T06:47:15.261Z,100.00
2023-01-10T06:49:43.409Z,100.00
2023-01-10T06:52:11.495Z,100.00
2023-01-10T06:54:39.757Z,100.00
2023-01-10T06:57:08.667Z,100.00
2023-01-10T06:59:36.835Z,100.00
2023-01-10T07:02:06.528Z,100.00
2023-01-10T07:04:34.943Z,100.00
2023-01-10T07:07:03.015Z,100.00
2023-01-10T07:09:31.097Z,100.00
2023-01-10T07:11:59.696Z,100.00
2023-01-10T07:14:27.805Z,100.00
2023-01-10T07:16:55.908Z,100.00
2023-01-10T07:19:25.386Z,100.00
2023-01-10T07:21:53.527Z,100.00
2023-01-10T07:24:21.621Z,100.00
2023-01-10T07:26:49.703Z,100.00
2023-01-10T07:29:17.745Z,100.00
2023-01-10T07:31:45.956Z,100.00
2023-01-10T07:34:14.015Z,100.00
2023-01-10T07:36:43.511Z,100.00
2023-01-10T07:39:11.697Z,100.00
2023-01-10T07:41:39.910Z,100.00
2023-01-10T07:44:08.087Z,100.00
2023-01-10T07:46:36.158Z,100.00
2023-01-10T07:49:04.332Z,100.00
2023-01-10T07:51:32.519Z,100.00
2023-01-10T07:54:02.060Z,100.00
2023-01-10T07:56:30.607Z,100.00
2023-01-10T07:58:58.803Z,100.00
2023-01-10T08:01:26.939Z,100.00
2023-01-10T08:03:55.112Z,100.00
2023-01-10T08:06:23.278Z,100.00
2023-01-10T08:08:51.341Z,100.00
2023-01-10T08:11:20.789Z,100.00
2023-01-10T08:13:48.877Z,100.00
2023-01-10T08:16:17.004Z,100.00
2023-01-10T08:18:45.094Z,100.00
2023-01-10T08:21:13.459Z,100.00
2023-01-10T08:23:41.514Z,100.00
2023-01-10T08:26:09.639Z,100.00
2023-01-10T08:28:39.158Z,100.00
2023-01-10T08:31:08.437Z,100.00
2023-01-10T08:33:38.058Z,100.00
2023-01-10T08:36:06.344Z,100.00
2023-01-10T08:38:34.435Z,100.00
2023-01-10T08:41:02.592Z,100.00
2023-01-10T08:43:30.620Z,100.00
2023-01-10T08:46:00.023Z,100.00
2023-01-10T08:48:28.340Z,100.00
2023-01-10T08:50:56.490Z,100.00
2023-01-10T08:53:24.578Z,100.00
2023-01-10T08:55:52.641Z,100.00
2023-01-10T08:58:20.753Z,100.00
2023-01-10T09:00:49.618Z,100.00
2023-01-10T09:03:19.256Z,100.00
2023-01-10T09:05:47.346Z,100.00
2023-01-10T09:08:15.609Z,100.00
2023-01-10T09:10:43.668Z,100.00
2023-01-10T09:13:11.730Z,100.00
2023-01-10T09:15:39.891Z,98.71
2023-01-10T09:18:08.879Z,98.90
2023-01-10T09:20:40.195Z,98.65
2023-01-10T09:23:09.556Z,98.30
2023-01-10T09:25:38.082Z,98.84
2023-01-10T09:28:07.325Z,99.07
2023-01-10T09:30:35.462Z,99.62
2023-01-10T09:33:04.357Z,99.97
2023-01-10T09:35:33.483Z,99.28
2023-01-10T09:38:03.247Z,98.63
2023-01-10T09:40:45.767Z,97.54
2023-01-10T09:43:21.376Z,97.75
2023-01-10T09:45:59.020Z,97.78
2023-01-10T09:48:35.424Z,97.52
2023-01-10T09:51:17.489Z,97.49
2023-01-10T09:53:48.656Z,99.54
2023-01-10T09:56:18.690Z,100.00
2023-01-10T09:58:48.462Z,100.00
2023-01-10T10:01:20.219Z,100.00
2023-01-10T10:03:55.265Z,100.00
2023-01-10T10:06:25.089Z,100.00
2023-01-10T10:08:54.990Z,100.00
2023-01-10T10:11:46.997Z,100.00
2023-01-10T10:14:28.209Z,100.00
2023-01-10T10:17:10.445Z,100.00
2023-01-10T10:19:54.001Z,100.00
2023-01-10T10:22:30.552Z,100.00
2023-01-10T10:25:10.116Z,100.00
2023-01-10T10:27:51.190Z,100.00
2023-01-10T10:30:42.615Z,100.00
2023-01-10T10:33:38.024Z,100.00
2023-01-10T10:36:13.154Z,100.00
2023-01-10T10:38:45.424Z,100.00
2023-01-10T10:41:20.833Z,100.00
2023-01-10T10:43:50.241Z,100.00
2023-01-10T10:46:20.208Z,99.78
2023-01-10T10:48:57.666Z,99.62
2023-01-10T10:51:31.385Z,98.90
2023-01-10T10:53:59.772Z,98.90
2023-01-10T10:56:29.422Z,98.52
2023-01-10T10:59:00.337Z,98.74
2023-01-10T11:01:28.852Z,99.31
2023-01-10T11:04:01.431Z,99.06
2023-01-10T11:06:34.101Z,100.00
2023-01-10T11:09:04.776Z,99.54
2023-01-10T11:11:38.368Z,99.46
2023-01-10T11:14:08.886Z,98.70
2023-01-10T11:16:40.482Z,99.12
2023-01-10T11:19:20.727Z,98.71
2023-01-10T11:21:53.432Z,98.27
2023-01-10T11:24:33.998Z,99.16
2023-01-10T11:27:15.448Z,98.61
2023-01-10T11:29:46.467Z,99.33
2023-01-10T11:32:16.882Z,99.46
2023-01-10T11:34:53.992Z,99.47
2023-01-10T11:37:25.285Z,98.66
2023-01-10T11:40:16.274Z,98.83
2023-01-10T11:42:46.064Z,99.79
2023-01-10T11:45:24.216Z,100.00
2023-01-10T11:47:55.748Z,99.83
2023-01-10T11:50:26.640Z,100.00
2023-01-10T11:52:55.783Z,100.00
2023-01-10T11:55:26.657Z,100.00
2023-01-10T11:58:06.536Z,100.00
2023-01-10T12:00:39.198Z,100.00
2023-01-10T12:03:23.850Z,100.00
2023-01-10T12:05:57.954Z,100.00
2023-01-10T12:08:29.936Z,100.00
2023-01-10T12:11:02.541Z,100.00
2023-01-10T12:13:45.627Z,100.00
2023-01-10T12:16:23.067Z,100.00
2023-01-10T12:18:52.590Z,100.00
2023-01-10T12:21:27.774Z,100.00
2023-01-10T12:24:00.699Z,100.00
2023-01-10T12:26:31.631Z,100.00
2023-01-10T12:29:13.727Z,100.00
2023-01-10T12:31:42.144Z,100.00
2023-01-10T12:34:20.153Z,100.00
2023-01-10T12:36:59.730Z,100.00
2023-01-10T12:39:33.589Z,100.00
2023-01-10T12:42:30.225Z,100.00
2023-01-10T12:45:06.314Z,100.00
2023-01-10T12:47:42.695Z,100.00
2023-01-10T12:50:15.668Z,100.00
2023-01-10T12:52:48.611Z,100.00
2023-01-10T12:55:17.853Z,100.00
2023-01-10T12:57:51.889Z,100.00
2023-01-10T13:00:25.826Z,100.00
2023-01-10T13:02:57.228Z,100.00
2023-01-10T13:05:27.428Z,100.00
2023-01-10T13:08:00.680Z,100.00
2023-01-10T13:10:30.082Z,100.00
2023-01-10T13:13:03.207Z,100.00
2023-01-10T13:15:36.428Z,100.00
2023-01-10T13:18:07.473Z,100.00
2023-01-10T13:20:45.903Z,100.00
2023-01-10T13:23:23.694Z,100.00
2023-01-10T13:25:57.392Z,100.00
2023-01-10T13:28:28.580Z,100.00
2023-01-10T13:31:01.309Z,100.00
2023-01-10T13:33:31.192Z,100.00
2023-01-10T13:36:10.049Z,100.00
2023-01-10T13:38:49.807Z,100.00
2023-01-10T13:41:35.981Z,100.00
2023-01-10T13:44:08.241Z,100.00
2023-01-10T13:46:43.459Z,100.00
2023-01-10T13:49:48.080Z,100.00
2023-01-10T13:52:33.605Z,100.00
2023-01-10T13:55:21.447Z,100.00
2023-01-10T13:58:44.693Z,100.00
2023-01-10T14:01:40.910Z,100.00
2023-01-10T14:04:21.349Z,100.00
2023-01-10T14:06:55.475Z,100.00
2023-01-10T14:09:45.402Z,100.00
2023-01-10T14:12:24.796Z,100.00
2023-01-10T14:14:57.323Z,100.00
2023-01-10T14:17:28.295Z,100.00
2023-01-10T14:20:08.574Z,100.00
2023-01-10T14:22:39.702Z,100.00
2023-01-10T14:25:18.250Z,100.00
2023-01-10T14:27:51.615Z,100.00
2023-01-10T14:30:24.277Z,100.00
2023-01-10T14:32:57.693Z,100.00
2023-01-10T14:35:35.098Z,100.00
2023-01-10T14:38:05.212Z,100.00
2023-01-10T14:40:46.701Z,100.00
2023-01-10T14:43:18.302Z,100.00
2023-01-10T14:45:55.554Z,100.00
2023-01-10T14:48:32.803Z,100.00
2023-01-10T14:51:22.064Z,100.00
2023-01-10T14:53:59.110Z,100.00
2023-01-10T14:56:29.147Z,99.31
2023-01-10T14:58:57.487Z,99.15
2023-01-10T15:01:28.711Z,99.50
2023-01-10T15:03:58.206Z,99.88
2023-01-10T15:06:27.846Z,99.39
2023-01-10T15:09:01.179Z,99.03
2023-01-10T15:11:31.702Z,99.49
2023-01-10T15:14:07.574Z,98.44
2023-01-10T15:16:37.244Z,99.15
2023-01-10T15:19:05.783Z,99.03
2023-01-10T15:21:42.313Z,98.42
2023-01-10T15:24:26.277Z,99.07
2023-01-10T15:26:54.586Z,99.13
2023-01-10T15:29:25.596Z,99.31
2023-01-10T15:31:57.481Z,99.52
2023-01-10T15:34:30.084Z,100.00
2023-01-10T15:37:01.806Z,100.00
2023-01-10T15:39:32.434Z,100.00
2023-01-10T15:42:02.845Z,100.00
2023-01-10T15:44:38.320Z,100.00
2023-01-10T15:47:07.009Z,100.00
2023-01-10T15:49:35.246Z,100.00
2023-01-10T15:52:04.793Z,100.00
2023-01-10T15:54:33.801Z,100.00
2023-01-10T15:57:08.767Z,100.00
2023-01-10T15:59:40.119Z,100.00
2023-01-10T16:02:22.788Z,100.00
2023-01-10T16:04:53.371Z,100.00
2023-01-10T16:07:27.524Z,100.00
2023-01-10T16:09:59.086Z,100.00
2023-01-10T16:12:52.752Z,100.00
2023-01-10T16:15:23.803Z,100.00
2023-01-10T16:17:52.572Z,100.00
2023-01-10T16:20:22.791Z,100.00
2023-01-10T16:22:52.521Z,100.00
2023-01-10T16:25:25.465Z,100.00
2023-01-10T16:27:56.293Z,100.00
2023-01-10T16:30:27.277Z,100.00
2023-01-10T16:32:57.322Z,100.00
2023-01-10T16:35:25.977Z,100.00
2023-01-10T16:37:58.362Z,100.00
2023-01-10T16:40:29.892Z,100.00
2023-01-10T16:43:15.351Z,100.00
2023-01-10T16:45:43.445Z,100.00
2023-01-10T16:48:11.746Z,100.00
2023-01-10T16:50:40.060Z,100.00
2023-01-10T16:53:12.199Z,100.00
2023-01-10T16:55:42.897Z,100.00
2023-01-10T16:58:11.807Z,100.00
2023-01-10T17:00:41.268Z,100.00
2023-01-10T17:03:14.441Z,100.00
2023-01-10T17:05:42.894Z,100.00
2023-01-10T17:08:16.874Z,100.00
2023-01-10T17:10:47.032Z,100.00
2023-01-10T17:13:21.611Z,100.00
2023-01-10T17:15:49.741Z,100.00
2023-01-10T17:18:17.959Z,100.00
2023-01-10T17:20:50.096Z,100.00
2023-01-10T17:23:24.197Z,100.00
2023-01-10T17:25:59.958Z,100.00
2023-01-10T17:28:29.066Z,100.00
2023-01-10T17:30:58.057Z,100.00
2023-01-10T17:33:26.826Z,100.00
2023-01-10T17:35:56.500Z,100.00
2023-01-10T17:38:27.115Z,100.00
2023-01-10T17:40:56.605Z,100.00
2023-01-10T17:43:24.972Z,100.00
2023-01-10T17:45:53.185Z,100.00
2023-01-10T17:48:21.803Z,100.00
2023-01-10T17:50:56.094Z,100.00
2023-01-10T17:53:25.606Z,100.00
2023-01-10T17:55:54.609Z,100.00
2023-01-10T17:58:23.177Z,100.00
2023-01-10T18:00:51.390Z,100.00
2023-01-10T18:03:19.550Z,100.00
2023-01-10T18:05:51.842Z,100.00
2023-01-10T18:08:20.221Z,100.00
2023-01-10T18:10:50.183Z,99.24
2023-01-10T18:13:20.447Z,99.15
2023-01-10T18:15:52.413Z,99.47
2023-01-10T18:18:23.058Z,98.79
2023-01-10T18:20:53.166Z,98.32
2023-01-10T18:23:25.411Z,98.92
2023-01-10T18:25:57.469Z,98.52
2023-01-10T18:28:40.047Z,99.15
2023-01-10T18:31:11.424Z,99.52
2023-01-10T18:33:39.571Z,99.98
2023-01-10T18:36:09.763Z,99.41
2023-01-10T18:38:38.529Z,99.05
2023-01-10T18:41:08.118Z,99.59
2023-01-10T18:43:36.503Z,99.99
2023-01-10T18:46:07.281Z,100.00
2023-01-10T18:48:35.406Z,100.00
2023-01-10T18:51:05.615Z,100.00
2023-01-10T18:53:33.999Z,100.00
2023-01-10T18:56:04.538Z,100.00
2023-01-10T18:58:35.706Z,100.00
2023-01-10T19:01:07.992Z,100.00
2023-01-10T19:03:36.810Z,99.77
2023-01-10T19:06:07.069Z,99.62
2023-01-10T19:08:36.520Z,99.95
2023-01-10T19:11:13.880Z,100.00
2023-01-10T19:13:44.868Z,100.00
2023-01-10T19:16:16.305Z,100.00
2023-01-10T19:18:45.199Z,100.00
2023-01-10T19:21:16.055Z,100.00
2023-01-10T19:23:44.607Z,100.00
2023-01-10T19:26:13.137Z,100.00
2023-01-10T19:28:41.961Z,100.00
2023-01-10T19:31:16.248Z,100.00
2023-01-10T19:33:44.494Z,100.00
2023-01-10T19:36:13.167Z,100.00
2023-01-10T19:38:41.366Z,100.00
2023-01-10T19:41:09.670Z,100.00
2023-01-10T19:43:38.140Z,100.00
2023-01-10T19:46:07.489Z,100.00
2023-01-10T19:48:38.368Z,100.00
2023-01-10T19:51:07.954Z,100.00
2023-01-10T19:53:37.174Z,100.00
2023-01-10T19:56:07.546Z,100.00
2023-01-10T19:58:36.162Z,100.00
2023-01-10T20:01:09.511Z,100.00
2023-01-10T20:03:41.061Z,100.00
2023-01-10T20:06:10.695Z,100.00
2023-01-10T20:08:38.819Z,100.00
2023-01-10T20:11:07.961Z,100.00
2023-01-10T20:13:38.938Z,100.00
2023-01-10T20:16:08.057Z,100.00
2023-01-10T20:18:36.205Z,100.00
2023-01-10T20:21:07.293Z,100.00
2023-01-10T20:23:35.439Z,100.00
2023-01-10T20:26:06.510Z,100.00
2023-01-10T20:28:35.531Z,100.00
2023-01-10T20:31:04.269Z,100.00
2023-01-10T20:33:34.557Z,100.00
2023-01-10T20:36:05.298Z,100.00
2023-01-10T20:38:36.821Z,100.00
2023-01-10T20:41:07.271Z,100.00
2023-01-10T20:43:35.965Z,100.00
2023-01-10T20:46:08.618Z,100.00
2023-01-10T20:48:36.780Z,100.00
2023-01-10T20:51:05.261Z,100.00
2023-01-10T20:53:34.776Z,100.00
2023-01-10T20:56:04.067Z,100.00
2023-01-10T20:58:33.064Z,100.00
2023-01-10T21:01:01.156Z,100.00
2023-01-10T21:03:29.253Z,100.00
2023-01-10T21:05:58.653Z,100.00
2023-01-10T21:08:29.633Z,100.00
2023-01-10T21:10:59.576Z,100.00
2023-01-10T21:13:28.161Z,100.00
2023-01-10T21:15:57.938Z,100.00
2023-01-10T21:18:27.828Z,100.00
2023-01-10T21:20:58.055Z,100.00
2023-01-10T21:23:27.969Z,99.22
2023-01-10T21:26:04.157Z,98.37
2023-01-10T21:28:34.572Z,97.37
2023-01-10T21:31:02.823Z,97.14
2023-01-10T21:33:30.935Z,96.80
2023-01-10T21:35:59.983Z,96.41
2023-01-10T21:38:29.757Z,95.72
2023-01-10T21:41:05.371Z,95.66
2023-01-10T21:43:35.062Z,94.62
2023-01-10T21:46:03.240Z,94.88
2023-01-10T21:48:31.365Z,94.60
2023-01-10T21:50:59.513Z,94.27
2023-01-10T21:53:28.342Z,94.44
2023-01-10T21:55:59.571Z,94.09
2023-01-10T21:58:27.811Z,94.37
2023-01-10T22:00:59.295Z,94.63
2023-01-10T22:03:27.726Z,94.18
2023-01-10T22:05:55.827Z,94.35
2023-01-10T22:08:24.188Z,94.80
2023-01-10T22:10:52.252Z,94.88
2023-01-10T22:13:20.479Z,95.05
2023-01-10T22:15:49.446Z,95.87
2023-01-10T22:18:19.064Z,96.33
2023-01-10T22:20:47.642Z,97.39
2023-01-10T22:23:15.695Z,97.13
2023-01-10T22:25:43.761Z,97.75
2023-01-10T22:28:11.928Z,98.64
2023-01-10T22:30:40.066Z,98.22
2023-01-10T22:33:08.099Z,97.75
2023-01-10T22:35:37.615Z,96.84
2023-01-10T22:38:05.682Z,96.58
2023-01-10T22:40:33.857Z,96.41
2023-01-10T22:43:01.923Z,96.31
2023-01-10T22:45:31.457Z,96.56
2023-01-10T22:47:59.604Z,96.61
2023-01-10T22:50:27.834Z,96.97
2023-01-10T22:52:57.266Z,97.02
2023-01-10T22:55:25.366Z,96.31
2023-01-10T22:57:53.499Z,94.34
2023-01-10T23:00:22.222Z,92.88
2023-01-10T23:02:50.320Z,92.18
2023-01-10T23:05:18.644Z,91.33
2023-01-10T23:07:46.749Z,91.18
2023-01-10T23:10:29.326Z,91.76
2023-01-10T23:12:58.676Z,92.85
2023-01-10T23:15:27.079Z,93.02
2023-01-10T23:17:55.340Z,93.11
2023-01-10T23:20:23.483Z,92.71
2023-01-10T23:22:51.545Z,92.27
2023-01-10T23:25:21.138Z,91.83
2023-01-10T23:27:49.241Z,92.42
2023-01-10T23:30:17.664Z,92.99
2023-01-10T23:32:45.763Z,92.58
2023-01-10T23:35:13.892Z,91.35
2023-01-10T23:37:42.115Z,90.91
2023-01-10T23:40:11.598Z,90.13
2023-01-10T23:42:41.161Z,90.06
2023-01-10T23:45:10.563Z,90.53
2023-01-10T23:47:38.689Z,89.91
2023-01-10T23:50:07.694Z,90.05
2023-01-10T23:52:35.824Z,89.37
2023-01-10T23:55:03.895Z,88.69
2023-01-10T23:57:31.946Z,88.40
